sensor_id;sensor_type;location;lat;lon;timestamp;P1;durP1;ratioP1;P2;durP2;ratioP2
40717;SDS011;26405;51.850;-2.246;2024-03-06T00:00:31;24.02;;;10.30;;
40717;SDS011;26405;51.850;-2.246;2024-03-06T00:08:34;25.10;;;10.00;;
40717;SDS011;26405;51.850;-2.246;2024-03-06T00:10:59;24.45;;;10.07;;
40717;SDS011;26405;51.850;-2.246;2024-03-06T00:13:25;23.00;;;9.73;;
40717;SDS011;26405;51.850;-2.246;2024-03-06T00:15:51;24.65;;;10.00;;
40717;SDS011;26405;51.850;-2.246;2024-03-06T00:18:18;24.77;;;9.55;;
40717;SDS011;26405;51.850;-2.246;2024-03-06T00:20:43;22.58;;;9.02;;
40717;SDS011;26405;51.850;-2.246;2024-03-06T00:23:10;25.00;;;9.90;;
40717;SDS011;26405;51.850;-2.246;2024-03-06T00:25:35;22.50;;;9.00;;
40717;SDS011;26405;51.850;-2.246;2024-03-06T00:28:01;23.38;;;9.32;;
40717;SDS011;26405;51.850;-2.246;2024-03-06T00:30:31;26.95;;;10.32;;
40717;SDS011;26405;51.850;-2.246;2024-03-06T00:32:58;27.67;;;11.48;;
40717;SDS011;26405;51.850;-2.246;2024-03-06T00:35:25;27.08;;;10.18;;
40717;SDS011;26405;51.850;-2.246;2024-03-06T00:37:52;25.73;;;10.43;;
40717;SDS011;26405;51.850;-2.246;2024-03-06T00:42:48;24.42;;;10.55;;
40717;SDS011;26405;51.850;-2.246;2024-03-06T00:45:14;24.23;;;11.18;;
40717;SDS011;26405;51.850;-2.246;2024-03-06T00:47:40;26.43;;;11.27;;
40717;SDS011;26405;51.850;-2.246;2024-03-06T00:50:05;29.52;;;12.77;;
40717;SDS011;26405;51.850;-2.246;2024-03-06T00:52:34;26.40;;;11.90;;
40717;SDS011;26405;51.850;-2.246;2024-03-06T00:54:59;28.42;;;12.25;;
40717;SDS011;26405;51.850;-2.246;2024-03-06T00:57:25;25.58;;;11.98;;
40717;SDS011;26405;51.850;-2.246;2024-03-06T00:59:56;26.77;;;12.02;;
40717;SDS011;26405;51.850;-2.246;2024-03-06T01:02:21;28.23;;;12.82;;
40717;SDS011;26405;51.850;-2.246;2024-03-06T01:04:47;31.17;;;12.90;;
40717;SDS011;26405;51.850;-2.246;2024-03-06T01:07:15;31.05;;;14.30;;
40717;SDS011;26405;51.850;-2.246;2024-03-06T01:09:43;30.70;;;13.18;;
40717;SDS011;26405;51.850;-2.246;2024-03-06T01:12:10;30.40;;;13.35;;
40717;SDS011;26405;51.850;-2.246;2024-03-06T01:14:42;27.35;;;11.88;;
40717;SDS011;26405;51.850;-2.246;2024-03-06T01:17:10;29.17;;;11.88;;
40717;SDS011;26405;51.850;-2.246;2024-03-06T01:19:36;31.67;;;12.32;;
40717;SDS011;26405;51.850;-2.246;2024-03-06T01:22:02;28.38;;;11.32;;
40717;SDS011;26405;51.850;-2.246;2024-03-06T01:24:28;24.88;;;9.90;;
40717;SDS011;26405;51.850;-2.246;2024-03-06T01:26:56;25.70;;;10.80;;
40717;SDS011;26405;51.850;-2.246;2024-03-06T01:29:22;26.30;;;10.40;;
40717;SDS011;26405;51.850;-2.246;2024-03-06T01:31:47;26.58;;;10.45;;
40717;SDS011;26405;51.850;-2.246;2024-03-06T01:34:14;27.92;;;10.77;;
40717;SDS011;26405;51.850;-2.246;2024-03-06T01:36:39;25.40;;;9.63;;
40717;SDS011;26405;51.850;-2.246;2024-03-06T01:39:05;25.20;;;10.52;;
40717;SDS011;26405;51.850;-2.246;2024-03-06T01:41:32;26.70;;;9.60;;
40717;SDS011;26405;51.850;-2.246;2024-03-06T01:43:58;23.10;;;9.18;;
40717;SDS011;26405;51.850;-2.246;2024-03-06T01:46:24;23.58;;;9.80;;
40717;SDS011;26405;51.850;-2.246;2024-03-06T01:48:49;26.55;;;10.52;;
40717;SDS011;26405;51.850;-2.246;2024-03-06T01:51:16;24.20;;;9.10;;
40717;SDS011;26405;51.850;-2.246;2024-03-06T01:53:42;24.40;;;8.85;;
40717;SDS011;26405;51.850;-2.246;2024-03-06T01:56:10;21.38;;;8.93;;
40717;SDS011;26405;51.850;-2.246;2024-03-06T01:58:41;22.85;;;9.15;;
40717;SDS011;26405;51.850;-2.246;2024-03-06T02:01:07;24.40;;;9.25;;
40717;SDS011;26405;51.850;-2.246;2024-03-06T02:03:33;22.60;;;9.02;;
40717;SDS011;26405;51.850;-2.246;2024-03-06T02:06:00;22.97;;;8.40;;
40717;SDS011;26405;51.850;-2.246;2024-03-06T02:08:28;20.23;;;8.20;;
40717;SDS011;26405;51.850;-2.246;2024-03-06T02:10:54;20.73;;;8.17;;
40717;SDS011;26405;51.850;-2.246;2024-03-06T02:13:20;21.63;;;8.07;;
40717;SDS011;26405;51.850;-2.246;2024-03-06T02:15:46;23.17;;;8.30;;
40717;SDS011;26405;51.850;-2.246;2024-03-06T02:18:12;22.40;;;8.18;;
40717;SDS011;26405;51.850;-2.246;2024-03-06T02:20:38;21.73;;;8.27;;
40717;SDS011;26405;51.850;-2.246;2024-03-06T02:23:07;22.73;;;8.35;;
40717;SDS011;26405;51.850;-2.246;2024-03-06T02:25:34;21.42;;;8.07;;
40717;SDS011;26405;51.850;-2.246;2024-03-06T02:28:00;21.00;;;8.50;;
40717;SDS011;26405;51.850;-2.246;2024-03-06T02:30:25;21.90;;;7.73;;
40717;SDS011;26405;51.850;-2.246;2024-03-06T02:32:52;21.85;;;7.63;;
40717;SDS011;26405;51.850;-2.246;2024-03-06T02:35:18;19.40;;;7.40;;
40717;SDS011;26405;51.850;-2.246;2024-03-06T02:37:44;22.77;;;8.68;;
40717;SDS011;26405;51.850;-2.246;2024-03-06T02:40:09;21.60;;;8.35;;
40717;SDS011;26405;51.850;-2.246;2024-03-06T02:42:35;25.52;;;8.57;;
40717;SDS011;26405;51.850;-2.246;2024-03-06T02:45:02;21.73;;;8.30;;
40717;SDS011;26405;51.850;-2.246;2024-03-06T02:47:27;24.63;;;8.68;;
40717;SDS011;26405;51.850;-2.246;2024-03-06T02:49:53;21.08;;;8.45;;
40717;SDS011;26405;51.850;-2.246;2024-03-06T02:52:19;21.17;;;8.63;;
40717;SDS011;26405;51.850;-2.246;2024-03-06T02:54:44;23.58;;;8.88;;
40717;SDS011;26405;51.850;-2.246;2024-03-06T02:57:10;22.50;;;8.43;;
40717;SDS011;26405;51.850;-2.246;2024-03-06T02:59:35;22.97;;;8.00;;
40717;SDS011;26405;51.850;-2.246;2024-03-06T03:02:02;22.02;;;7.88;;
40717;SDS011;26405;51.850;-2.246;2024-03-06T03:04:29;21.30;;;7.47;;
40717;SDS011;26405;51.850;-2.246;2024-03-06T03:06:54;25.13;;;7.40;;
40717;SDS011;26405;51.850;-2.246;2024-03-06T03:09:21;22.42;;;7.07;;
40717;SDS011;26405;51.850;-2.246;2024-03-06T03:11:47;21.48;;;7.63;;
40717;SDS011;26405;51.850;-2.246;2024-03-06T03:14:14;21.50;;;7.30;;
40717;SDS011;26405;51.850;-2.246;2024-03-06T03:16:40;22.30;;;7.00;;
40717;SDS011;26405;51.850;-2.246;2024-03-06T03:19:07;19.08;;;6.50;;
40717;SDS011;26405;51.850;-2.246;2024-03-06T03:21:34;23.73;;;7.07;;
40717;SDS011;26405;51.850;-2.246;2024-03-06T03:24:00;21.27;;;6.88;;
40717;SDS011;26405;51.850;-2.246;2024-03-06T03:26:25;20.23;;;7.13;;
40717;SDS011;26405;51.850;-2.246;2024-03-06T03:28:51;21.02;;;6.95;;
40717;SDS011;26405;51.850;-2.246;2024-03-06T03:31:17;20.08;;;6.93;;
40717;SDS011;26405;51.850;-2.246;2024-03-06T03:33:43;16.70;;;6.47;;
40717;SDS011;26405;51.850;-2.246;2024-03-06T03:36:09;18.88;;;7.00;;
40717;SDS011;26405;51.850;-2.246;2024-03-06T03:38:37;21.05;;;6.78;;
40717;SDS011;26405;51.850;-2.246;2024-03-06T03:41:09;21.30;;;6.63;;
40717;SDS011;26405;51.850;-2.246;2024-03-06T03:43:34;20.55;;;7.43;;
40717;SDS011;26405;51.850;-2.246;2024-03-06T03:46:00;19.83;;;6.82;;
40717;SDS011;26405;51.850;-2.246;2024-03-06T03:48:26;20.00;;;7.47;;
40717;SDS011;26405;51.850;-2.246;2024-03-06T03:50:52;20.70;;;6.63;;
40717;SDS011;26405;51.850;-2.246;2024-03-06T03:53:18;21.85;;;8.57;;
40717;SDS011;26405;51.850;-2.246;2024-03-06T03:55:43;22.48;;;8.05;;
40717;SDS011;26405;51.850;-2.246;2024-03-06T03:58:10;23.67;;;7.40;;
40717;SDS011;26405;51.850;-2.246;2024-03-06T04:00:35;26.73;;;10.75;;
40717;SDS011;26405;51.850;-2.246;2024-03-06T04:03:03;23.25;;;8.57;;
40717;SDS011;26405;51.850;-2.246;2024-03-06T04:05:28;20.50;;;7.72;;
40717;SDS011;26405;51.850;-2.246;2024-03-06T04:07:54;25.67;;;9.27;;
40717;SDS011;26405;51.850;-2.246;2024-03-06T04:10:21;27.27;;;9.85;;
40717;SDS011;26405;51.850;-2.246;2024-03-06T04:12:47;28.55;;;11.85;;
40717;SDS011;26405;51.850;-2.246;2024-03-06T04:15:14;25.08;;;10.05;;
40717;SDS011;26405;51.850;-2.246;2024-03-06T04:17:39;28.17;;;10.75;;
40717;SDS011;26405;51.850;-2.246;2024-03-06T04:20:06;26.75;;;10.10;;
40717;SDS011;26405;51.850;-2.246;2024-03-06T04:22:33;26.07;;;9.37;;
40717;SDS011;26405;51.850;-2.246;2024-03-06T04:24:59;22.42;;;8.90;;
40717;SDS011;26405;51.850;-2.246;2024-03-06T04:27:26;21.33;;;8.60;;
40717;SDS011;26405;51.850;-2.246;2024-03-06T04:29:51;23.50;;;8.80;;
40717;SDS011;26405;51.850;-2.246;2024-03-06T04:32:20;25.63;;;10.60;;
40717;SDS011;26405;51.850;-2.246;2024-03-06T04:34:45;23.40;;;10.05;;
40717;SDS011;26405;51.850;-2.246;2024-03-06T04:37:11;23.85;;;9.35;;
40717;SDS011;26405;51.850;-2.246;2024-03-06T04:39:38;23.77;;;8.57;;
40717;SDS011;26405;51.850;-2.246;2024-03-06T04:42:03;24.15;;;10.32;;
40717;SDS011;26405;51.850;-2.246;2024-03-06T04:44:28;27.23;;;11.85;;
40717;SDS011;26405;51.850;-2.246;2024-03-06T04:46:57;31.27;;;14.07;;
40717;SDS011;26405;51.850;-2.246;2024-03-06T04:49:23;29.10;;;13.73;;
40717;SDS011;26405;51.850;-2.246;2024-03-06T04:51:48;27.52;;;12.00;;
40717;SDS011;26405;51.850;-2.246;2024-03-06T04:54:15;27.20;;;10.70;;
40717;SDS011;26405;51.850;-2.246;2024-03-06T04:56:40;27.27;;;10.40;;
40717;SDS011;26405;51.850;-2.246;2024-03-06T04:59:05;27.23;;;10.27;;
40717;SDS011;26405;51.850;-2.246;2024-03-06T05:01:30;25.45;;;10.40;;
40717;SDS011;26405;51.850;-2.246;2024-03-06T05:03:56;23.25;;;9.98;;
40717;SDS011;26405;51.850;-2.246;2024-03-06T05:06:22;24.88;;;10.13;;
40717;SDS011;26405;51.850;-2.246;2024-03-06T05:08:48;31.73;;;10.75;;
40717;SDS011;26405;51.850;-2.246;2024-03-06T05:11:13;24.42;;;9.68;;
40717;SDS011;26405;51.850;-2.246;2024-03-06T05:13:39;22.45;;;9.48;;
40717;SDS011;26405;51.850;-2.246;2024-03-06T05:16:04;25.15;;;9.52;;
40717;SDS011;26405;51.850;-2.246;2024-03-06T05:18:30;23.75;;;9.50;;
40717;SDS011;26405;51.850;-2.246;2024-03-06T05:20:55;21.90;;;8.65;;
40717;SDS011;26405;51.850;-2.246;2024-03-06T05:23:21;25.05;;;9.55;;
40717;SDS011;26405;51.850;-2.246;2024-03-06T05:25:46;25.10;;;10.10;;
40717;SDS011;26405;51.850;-2.246;2024-03-06T05:28:12;23.02;;;9.40;;
40717;SDS011;26405;51.850;-2.246;2024-03-06T05:30:38;23.85;;;9.35;;
40717;SDS011;26405;51.850;-2.246;2024-03-06T05:33:04;23.58;;;9.65;;
40717;SDS011;26405;51.850;-2.246;2024-03-06T05:35:29;23.75;;;9.02;;
40717;SDS011;26405;51.850;-2.246;2024-03-06T05:37:55;24.17;;;9.98;;
40717;SDS011;26405;51.850;-2.246;2024-03-06T05:40:22;23.20;;;8.65;;
40717;SDS011;26405;51.850;-2.246;2024-03-06T05:42:49;23.95;;;9.38;;
40717;SDS011;26405;51.850;-2.246;2024-03-06T05:47:42;22.55;;;8.32;;
40717;SDS011;26405;51.850;-2.246;2024-03-06T05:50:07;20.63;;;8.38;;
40717;SDS011;26405;51.850;-2.246;2024-03-06T05:52:34;21.02;;;8.65;;
40717;SDS011;26405;51.850;-2.246;2024-03-06T05:55:01;23.57;;;8.60;;
40717;SDS011;26405;51.850;-2.246;2024-03-06T05:57:26;21.27;;;8.45;;
40717;SDS011;26405;51.850;-2.246;2024-03-06T05:59:51;23.50;;;8.40;;
40717;SDS011;26405;51.850;-2.246;2024-03-06T06:02:16;24.38;;;8.45;;
40717;SDS011;26405;51.850;-2.246;2024-03-06T06:04:43;21.42;;;7.93;;
40717;SDS011;26405;51.850;-2.246;2024-03-06T06:07:09;22.40;;;8.60;;
40717;SDS011;26405;51.850;-2.246;2024-03-06T06:09:34;23.20;;;8.82;;
40717;SDS011;26405;51.850;-2.246;2024-03-06T06:12:00;22.13;;;8.55;;
40717;SDS011;26405;51.850;-2.246;2024-03-06T06:14:26;22.92;;;9.25;;
40717;SDS011;26405;51.850;-2.246;2024-03-06T06:16:58;22.42;;;9.13;;
40717;SDS011;26405;51.850;-2.246;2024-03-06T06:19:23;22.83;;;9.82;;
40717;SDS011;26405;51.850;-2.246;2024-03-06T06:21:51;24.80;;;10.27;;
40717;SDS011;26405;51.850;-2.246;2024-03-06T06:24:19;23.95;;;10.10;;
40717;SDS011;26405;51.850;-2.246;2024-03-06T06:26:44;21.83;;;9.50;;
40717;SDS011;26405;51.850;-2.246;2024-03-06T06:29:09;23.73;;;9.82;;
40717;SDS011;26405;51.850;-2.246;2024-03-06T06:31:34;27.30;;;10.20;;
40717;SDS011;26405;51.850;-2.246;2024-03-06T06:34:00;26.42;;;11.77;;
40717;SDS011;26405;51.850;-2.246;2024-03-06T06:36:26;30.65;;;11.82;;
40717;SDS011;26405;51.850;-2.246;2024-03-06T06:38:52;39.33;;;11.85;;
40717;SDS011;26405;51.850;-2.246;2024-03-06T06:41:19;35.08;;;11.35;;
40717;SDS011;26405;51.850;-2.246;2024-03-06T06:43:45;32.83;;;11.23;;
40717;SDS011;26405;51.850;-2.246;2024-03-06T06:46:11;34.28;;;11.27;;
40717;SDS011;26405;51.850;-2.246;2024-03-06T06:48:36;35.92;;;11.52;;
40717;SDS011;26405;51.850;-2.246;2024-03-06T06:51:02;37.88;;;10.43;;
40717;SDS011;26405;51.850;-2.246;2024-03-06T06:53:30;27.40;;;10.57;;
40717;SDS011;26405;51.850;-2.246;2024-03-06T06:55:55;28.52;;;10.40;;
40717;SDS011;26405;51.850;-2.246;2024-03-06T06:58:22;26.05;;;10.82;;
40717;SDS011;26405;51.850;-2.246;2024-03-06T07:00:47;28.90;;;10.68;;
40717;SDS011;26405;51.850;-2.246;2024-03-06T07:03:14;25.15;;;10.18;;
40717;SDS011;26405;51.850;-2.246;2024-03-06T07:05:40;26.87;;;7.80;;
40717;SDS011;26405;51.850;-2.246;2024-03-06T07:08:08;29.40;;;7.65;;
40717;SDS011;26405;51.850;-2.246;2024-03-06T07:10:34;23.33;;;7.20;;
40717;SDS011;26405;51.850;-2.246;2024-03-06T07:13:03;24.98;;;7.93;;
40717;SDS011;26405;51.850;-2.246;2024-03-06T07:15:33;27.55;;;7.90;;
40717;SDS011;26405;51.850;-2.246;2024-03-06T07:17:59;32.33;;;7.63;;
40717;SDS011;26405;51.850;-2.246;2024-03-06T07:20:24;30.33;;;9.23;;
40717;SDS011;26405;51.850;-2.246;2024-03-06T07:22:50;23.65;;;9.15;;
40717;SDS011;26405;51.850;-2.246;2024-03-06T07:25:16;21.80;;;8.57;;
40717;SDS011;26405;51.850;-2.246;2024-03-06T07:27:42;22.67;;;8.02;;
40717;SDS011;26405;51.850;-2.246;2024-03-06T07:30:07;19.83;;;7.18;;
40717;SDS011;26405;51.850;-2.246;2024-03-06T07:32:33;20.00;;;6.60;;
40717;SDS011;26405;51.850;-2.246;2024-03-06T07:34:58;17.88;;;6.70;;
40717;SDS011;26405;51.850;-2.246;2024-03-06T07:37:24;23.92;;;7.43;;
40717;SDS011;26405;51.850;-2.246;2024-03-06T07:39:50;23.15;;;7.15;;
40717;SDS011;26405;51.850;-2.246;2024-03-06T07:42:17;28.15;;;7.32;;
40717;SDS011;26405;51.850;-2.246;2024-03-06T07:44:43;22.60;;;7.22;;
40717;SDS011;26405;51.850;-2.246;2024-03-06T07:47:11;33.95;;;7.72;;
40717;SDS011;26405;51.850;-2.246;2024-03-06T07:49:37;31.45;;;6.85;;
40717;SDS011;26405;51.850;-2.246;2024-03-06T07:52:02;26.10;;;7.43;;
40717;SDS011;26405;51.850;-2.246;2024-03-06T07:54:28;39.38;;;8.30;;
40717;SDS011;26405;51.850;-2.246;2024-03-06T07:56:54;28.13;;;9.10;;
40717;SDS011;26405;51.850;-2.246;2024-03-06T07:59:22;38.30;;;10.32;;
40717;SDS011;26405;51.850;-2.246;2024-03-06T08:01:48;26.83;;;8.57;;
40717;SDS011;26405;51.850;-2.246;2024-03-06T08:04:13;32.92;;;8.68;;
40717;SDS011;26405;51.850;-2.246;2024-03-06T08:06:40;24.73;;;8.48;;
40717;SDS011;26405;51.850;-2.246;2024-03-06T08:11:32;27.92;;;7.30;;
40717;SDS011;26405;51.850;-2.246;2024-03-06T08:13:58;30.73;;;7.30;;
40717;SDS011;26405;51.850;-2.246;2024-03-06T08:16:24;32.20;;;7.35;;
40717;SDS011;26405;51.850;-2.246;2024-03-06T08:18:49;30.45;;;7.63;;
40717;SDS011;26405;51.850;-2.246;2024-03-06T08:21:14;29.80;;;7.90;;
40717;SDS011;26405;51.850;-2.246;2024-03-06T08:23:40;49.55;;;7.70;;
40717;SDS011;26405;51.850;-2.246;2024-03-06T08:26:07;36.78;;;8.18;;
40717;SDS011;26405;51.850;-2.246;2024-03-06T08:28:32;38.20;;;8.23;;
40717;SDS011;26405;51.850;-2.246;2024-03-06T08:30:59;41.63;;;8.02;;
40717;SDS011;26405;51.850;-2.246;2024-03-06T08:33:28;20.25;;;7.70;;
40717;SDS011;26405;51.850;-2.246;2024-03-06T08:35:54;29.23;;;7.90;;
40717;SDS011;26405;51.850;-2.246;2024-03-06T08:38:21;26.92;;;7.97;;
40717;SDS011;26405;51.850;-2.246;2024-03-06T08:40:47;24.50;;;8.80;;
40717;SDS011;26405;51.850;-2.246;2024-03-06T08:45:41;20.00;;;9.00;;
40717;SDS011;26405;51.850;-2.246;2024-03-06T08:48:07;22.33;;;9.30;;
40717;SDS011;26405;51.850;-2.246;2024-03-06T08:50:32;24.35;;;10.43;;
40717;SDS011;26405;51.850;-2.246;2024-03-06T08:52:59;27.30;;;10.60;;
40717;SDS011;26405;51.850;-2.246;2024-03-06T08:55:27;23.83;;;10.10;;
40717;SDS011;26405;51.850;-2.246;2024-03-06T08:57:54;24.42;;;10.55;;
40717;SDS011;26405;51.850;-2.246;2024-03-06T09:00:19;20.77;;;10.47;;
40717;SDS011;26405;51.850;-2.246;2024-03-06T09:02:46;25.92;;;10.50;;
40717;SDS011;26405;51.850;-2.246;2024-03-06T09:05:11;22.02;;;10.45;;
40717;SDS011;26405;51.850;-2.246;2024-03-06T09:07:38;22.27;;;10.60;;
40717;SDS011;26405;51.850;-2.246;2024-03-06T09:10:09;21.17;;;9.70;;
40717;SDS011;26405;51.850;-2.246;2024-03-06T09:12:34;20.55;;;9.73;;
40717;SDS011;26405;51.850;-2.246;2024-03-06T09:15:01;22.75;;;9.93;;
40717;SDS011;26405;51.850;-2.246;2024-03-06T09:17:27;22.95;;;10.27;;
40717;SDS011;26405;51.850;-2.246;2024-03-06T09:19:53;22.00;;;10.32;;
40717;SDS011;26405;51.850;-2.246;2024-03-06T09:22:19;21.00;;;10.70;;
40717;SDS011;26405;51.850;-2.246;2024-03-06T09:24:44;22.65;;;10.45;;
40717;SDS011;26405;51.850;-2.246;2024-03-06T09:27:09;20.60;;;10.45;;
40717;SDS011;26405;51.850;-2.246;2024-03-06T09:29:40;20.95;;;10.57;;
40717;SDS011;26405;51.850;-2.246;2024-03-06T09:32:07;19.70;;;10.32;;
40717;SDS011;26405;51.850;-2.246;2024-03-06T09:34:32;22.88;;;11.05;;
40717;SDS011;26405;51.850;-2.246;2024-03-06T09:37:01;23.98;;;11.57;;
40717;SDS011;26405;51.850;-2.246;2024-03-06T09:39:28;21.10;;;10.50;;
40717;SDS011;26405;51.850;-2.246;2024-03-06T09:41:54;22.03;;;11.43;;
40717;SDS011;26405;51.850;-2.246;2024-03-06T09:44:21;21.17;;;11.10;;
40717;SDS011;26405;51.850;-2.246;2024-03-06T09:46:48;22.98;;;12.05;;
40717;SDS011;26405;51.850;-2.246;2024-03-06T09:49:15;22.70;;;11.48;;
40717;SDS011;26405;51.850;-2.246;2024-03-06T09:51:42;21.40;;;11.60;;
40717;SDS011;26405;51.850;-2.246;2024-03-06T09:54:15;21.80;;;11.65;;
40717;SDS011;26405;51.850;-2.246;2024-03-06T09:56:44;21.77;;;11.43;;
40717;SDS011;26405;51.850;-2.246;2024-03-06T09:59:10;21.77;;;12.07;;
40717;SDS011;26405;51.850;-2.246;2024-03-06T10:01:38;21.60;;;12.10;;
40717;SDS011;26405;51.850;-2.246;2024-03-06T10:04:21;26.33;;;12.57;;
40717;SDS011;26405;51.850;-2.246;2024-03-06T10:06:49;25.42;;;12.43;;
40717;SDS011;26405;51.850;-2.246;2024-03-06T10:09:18;24.70;;;13.35;;
40717;SDS011;26405;51.850;-2.246;2024-03-06T10:11:43;23.27;;;13.20;;
40717;SDS011;26405;51.850;-2.246;2024-03-06T10:14:10;21.83;;;12.30;;
40717;SDS011;26405;51.850;-2.246;2024-03-06T10:16:36;24.17;;;13.40;;
40717;SDS011;26405;51.850;-2.246;2024-03-06T10:19:18;24.30;;;13.07;;
40717;SDS011;26405;51.850;-2.246;2024-03-06T10:21:46;23.08;;;12.55;;
40717;SDS011;26405;51.850;-2.246;2024-03-06T10:24:16;24.00;;;12.77;;
40717;SDS011;26405;51.850;-2.246;2024-03-06T10:26:43;22.45;;;12.88;;
40717;SDS011;26405;51.850;-2.246;2024-03-06T10:31:35;21.73;;;12.52;;
40717;SDS011;26405;51.850;-2.246;2024-03-06T10:34:02;23.50;;;13.32;;
40717;SDS011;26405;51.850;-2.246;2024-03-06T10:36:31;22.88;;;12.40;;
40717;SDS011;26405;51.850;-2.246;2024-03-06T10:38:58;22.00;;;12.77;;
40717;SDS011;26405;51.850;-2.246;2024-03-06T10:41:27;22.33;;;11.90;;
40717;SDS011;26405;51.850;-2.246;2024-03-06T10:44:02;22.95;;;12.68;;
40717;SDS011;26405;51.850;-2.246;2024-03-06T10:46:28;22.35;;;12.27;;
40717;SDS011;26405;51.850;-2.246;2024-03-06T10:48:54;21.25;;;12.20;;
40717;SDS011;26405;51.850;-2.246;2024-03-06T10:51:23;22.75;;;11.60;;
40717;SDS011;26405;51.850;-2.246;2024-03-06T10:53:51;22.50;;;12.25;;
40717;SDS011;26405;51.850;-2.246;2024-03-06T10:56:17;22.73;;;12.18;;
40717;SDS011;26405;51.850;-2.246;2024-03-06T10:58:46;20.85;;;12.18;;
40717;SDS011;26405;51.850;-2.246;2024-03-06T11:01:14;26.13;;;12.77;;
40717;SDS011;26405;51.850;-2.246;2024-03-06T11:03:39;22.35;;;12.38;;
40717;SDS011;26405;51.850;-2.246;2024-03-06T11:06:05;23.05;;;13.00;;
40717;SDS011;26405;51.850;-2.246;2024-03-06T11:08:32;25.15;;;13.15;;
40717;SDS011;26405;51.850;-2.246;2024-03-06T11:11:18;23.13;;;12.63;;
40717;SDS011;26405;51.850;-2.246;2024-03-06T11:13:53;22.00;;;12.32;;
40717;SDS011;26405;51.850;-2.246;2024-03-06T11:16:33;22.92;;;12.77;;
40717;SDS011;26405;51.850;-2.246;2024-03-06T11:19:18;21.92;;;12.20;;
40717;SDS011;26405;51.850;-2.246;2024-03-06T11:21:48;21.52;;;12.00;;
40717;SDS011;26405;51.850;-2.246;2024-03-06T11:24:22;25.17;;;13.23;;
40717;SDS011;26405;51.850;-2.246;2024-03-06T11:29:18;23.58;;;12.43;;
40717;SDS011;26405;51.850;-2.246;2024-03-06T11:31:59;23.48;;;12.57;;
40717;SDS011;26405;51.850;-2.246;2024-03-06T11:34:28;23.83;;;12.63;;
40717;SDS011;26405;51.850;-2.246;2024-03-06T11:36:58;23.05;;;12.40;;
40717;SDS011;26405;51.850;-2.246;2024-03-06T11:39:24;22.08;;;12.98;;
40717;SDS011;26405;51.850;-2.246;2024-03-06T11:41:56;26.55;;;13.05;;
40717;SDS011;26405;51.850;-2.246;2024-03-06T11:44:31;22.27;;;13.23;;
40717;SDS011;26405;51.850;-2.246;2024-03-06T11:49:22;24.15;;;12.60;;
40717;SDS011;26405;51.850;-2.246;2024-03-06T11:51:54;20.60;;;11.60;;
40717;SDS011;26405;51.850;-2.246;2024-03-06T11:54:21;23.67;;;12.60;;
40717;SDS011;26405;51.850;-2.246;2024-03-06T11:56:55;24.67;;;12.45;;
40717;SDS011;26405;51.850;-2.246;2024-03-06T11:59:21;24.77;;;12.43;;
40717;SDS011;26405;51.850;-2.246;2024-03-06T12:01:47;26.50;;;13.13;;
40717;SDS011;26405;51.850;-2.246;2024-03-06T12:04:13;21.83;;;12.98;;
40717;SDS011;26405;51.850;-2.246;2024-03-06T12:06:39;25.30;;;12.13;;
40717;SDS011;26405;51.850;-2.246;2024-03-06T12:09:05;22.37;;;12.30;;
40717;SDS011;26405;51.850;-2.246;2024-03-06T12:11:31;24.20;;;13.18;;
40717;SDS011;26405;51.850;-2.246;2024-03-06T12:13:57;21.77;;;12.47;;
40717;SDS011;26405;51.850;-2.246;2024-03-06T12:16:23;21.97;;;11.77;;
40717;SDS011;26405;51.850;-2.246;2024-03-06T12:18:58;25.83;;;12.93;;
40717;SDS011;26405;51.850;-2.246;2024-03-06T12:21:27;24.85;;;13.68;;
40717;SDS011;26405;51.850;-2.246;2024-03-06T12:24:04;23.13;;;12.73;;
40717;SDS011;26405;51.850;-2.246;2024-03-06T12:26:32;24.00;;;13.13;;
40717;SDS011;26405;51.850;-2.246;2024-03-06T12:29:05;23.83;;;12.23;;
40717;SDS011;26405;51.850;-2.246;2024-03-06T12:31:31;22.15;;;12.40;;
40717;SDS011;26405;51.850;-2.246;2024-03-06T12:33:56;23.48;;;13.15;;
40717;SDS011;26405;51.850;-2.246;2024-03-06T12:36:24;22.92;;;13.07;;
40717;SDS011;26405;51.850;-2.246;2024-03-06T12:38:54;22.42;;;13.20;;
40717;SDS011;26405;51.850;-2.246;2024-03-06T12:41:20;22.13;;;12.73;;
40717;SDS011;26405;51.850;-2.246;2024-03-06T12:43:45;23.80;;;12.52;;
40717;SDS011;26405;51.850;-2.246;2024-03-06T12:46:12;22.50;;;11.75;;
40717;SDS011;26405;51.850;-2.246;2024-03-06T12:48:38;22.55;;;12.80;;
40717;SDS011;26405;51.850;-2.246;2024-03-06T12:51:03;25.30;;;12.43;;
40717;SDS011;26405;51.850;-2.246;2024-03-06T12:53:36;21.70;;;11.95;;
40717;SDS011;26405;51.850;-2.246;2024-03-06T12:56:01;20.80;;;11.38;;
40717;SDS011;26405;51.850;-2.246;2024-03-06T12:58:26;22.38;;;11.98;;
40717;SDS011;26405;51.850;-2.246;2024-03-06T13:00:54;24.75;;;12.38;;
40717;SDS011;26405;51.850;-2.246;2024-03-06T13:03:20;23.20;;;12.27;;
40717;SDS011;26405;51.850;-2.246;2024-03-06T13:05:47;20.83;;;10.82;;
40717;SDS011;26405;51.850;-2.246;2024-03-06T13:08:12;22.58;;;11.23;;
40717;SDS011;26405;51.850;-2.246;2024-03-06T13:10:40;21.88;;;11.38;;
40717;SDS011;26405;51.850;-2.246;2024-03-06T13:13:05;19.58;;;9.05;;
40717;SDS011;26405;51.850;-2.246;2024-03-06T13:15:34;21.73;;;10.30;;
40717;SDS011;26405;51.850;-2.246;2024-03-06T13:17:59;22.90;;;10.27;;
40717;SDS011;26405;51.850;-2.246;2024-03-06T13:20:33;21.17;;;9.27;;
40717;SDS011;26405;51.850;-2.246;2024-03-06T13:22:59;17.48;;;6.82;;
40717;SDS011;26405;51.850;-2.246;2024-03-06T13:25:27;20.75;;;7.93;;
40717;SDS011;26405;51.850;-2.246;2024-03-06T13:27:52;17.13;;;6.85;;
40717;SDS011;26405;51.850;-2.246;2024-03-06T13:30:21;17.38;;;5.95;;
40717;SDS011;26405;51.850;-2.246;2024-03-06T13:32:48;19.35;;;6.38;;
40717;SDS011;26405;51.850;-2.246;2024-03-06T13:35:13;18.80;;;5.13;;
40717;SDS011;26405;51.850;-2.246;2024-03-06T13:37:39;18.92;;;5.97;;
40717;SDS011;26405;51.850;-2.246;2024-03-06T13:40:05;20.15;;;6.43;;
40717;SDS011;26405;51.850;-2.246;2024-03-06T13:42:33;16.40;;;6.25;;
40717;SDS011;26405;51.850;-2.246;2024-03-06T13:44:59;16.58;;;6.07;;
40717;SDS011;26405;51.850;-2.246;2024-03-06T13:47:45;18.35;;;6.50;;
40717;SDS011;26405;51.850;-2.246;2024-03-06T13:50:14;18.88;;;6.38;;
40717;SDS011;26405;51.850;-2.246;2024-03-06T13:52:44;17.92;;;6.40;;
40717;SDS011;26405;51.850;-2.246;2024-03-06T13:55:11;20.27;;;6.47;;
40717;SDS011;26405;51.850;-2.246;2024-03-06T13:57:37;20.45;;;6.07;;
40717;SDS011;26405;51.850;-2.246;2024-03-06T14:00:04;16.20;;;5.15;;
40717;SDS011;26405;51.850;-2.246;2024-03-06T14:02:30;16.05;;;4.85;;
40717;SDS011;26405;51.850;-2.246;2024-03-06T14:04:57;17.92;;;5.82;;
40717;SDS011;26405;51.850;-2.246;2024-03-06T14:07:23;17.58;;;5.78;;
40717;SDS011;26405;51.850;-2.246;2024-03-06T14:09:54;16.58;;;5.55;;
40717;SDS011;26405;51.850;-2.246;2024-03-06T14:12:23;19.05;;;6.30;;
40717;SDS011;26405;51.850;-2.246;2024-03-06T14:17:13;20.97;;;6.13;;
40717;SDS011;26405;51.850;-2.246;2024-03-06T14:19:39;20.40;;;6.38;;
40717;SDS011;26405;51.850;-2.246;2024-03-06T14:22:06;20.83;;;6.60;;
40717;SDS011;26405;51.850;-2.246;2024-03-06T14:24:31;21.37;;;6.20;;
40717;SDS011;26405;51.850;-2.246;2024-03-06T14:26:56;23.40;;;6.20;;
40717;SDS011;26405;51.850;-2.246;2024-03-06T14:29:21;20.38;;;6.30;;
40717;SDS011;26405;51.850;-2.246;2024-03-06T14:31:48;18.57;;;6.13;;
40717;SDS011;26405;51.850;-2.246;2024-03-06T14:34:13;16.95;;;6.07;;
40717;SDS011;26405;51.850;-2.246;2024-03-06T14:36:39;19.40;;;6.50;;
40717;SDS011;26405;51.850;-2.246;2024-03-06T14:39:05;18.83;;;6.95;;